sensor_id;sensor_type;location;lat;lon;timestamp;P1;durP1;ratioP1;P2;durP2;ratioP2
51987;SDS011;38003;52.012;4.346;2023-09-07T00:01:19;7.60;;;6.80;;
51987;SDS011;38003;52.012;4.346;2023-09-07T00:03:48;7.57;;;6.88;;
51987;SDS011;38003;52.012;4.346;2023-09-07T00:06:16;8.68;;;7.57;;
51987;SDS011;38003;52.012;4.346;2023-09-07T00:08:44;8.80;;;7.55;;
51987;SDS011;38003;52.012;4.346;2023-09-07T00:11:12;8.07;;;7.28;;
51987;SDS011;38003;52.012;4.346;2023-09-07T00:13:42;9.15;;;7.75;;
51987;SDS011;38003;52.012;4.346;2023-09-07T00:16:11;8.10;;;7.20;;
51987;SDS011;38003;52.012;4.346;2023-09-07T00:18:40;9.55;;;7.57;;
51987;SDS011;38003;52.012;4.346;2023-09-07T00:21:08;8.80;;;7.70;;
51987;SDS011;38003;52.012;4.346;2023-09-07T00:23:36;8.73;;;7.68;;
51987;SDS011;38003;52.012;4.346;2023-09-07T00:26:05;8.77;;;7.68;;
51987;SDS011;38003;52.012;4.346;2023-09-07T00:28:33;9.20;;;7.75;;
51987;SDS011;38003;52.012;4.346;2023-09-07T00:31:02;8.77;;;7.93;;
51987;SDS011;38003;52.012;4.346;2023-09-07T00:33:31;8.35;;;7.35;;
51987;SDS011;38003;52.012;4.346;2023-09-07T00:36:01;8.75;;;7.95;;
51987;SDS011;38003;52.012;4.346;2023-09-07T00:38:29;8.70;;;7.80;;
51987;SDS011;38003;52.012;4.346;2023-09-07T00:40:58;8.88;;;8.07;;
51987;SDS011;38003;52.012;4.346;2023-09-07T00:43:26;9.98;;;8.10;;
51987;SDS011;38003;52.012;4.346;2023-09-07T00:45:54;9.63;;;8.20;;
51987;SDS011;38003;52.012;4.346;2023-09-07T00:48:23;8.73;;;7.93;;
51987;SDS011;38003;52.012;4.346;2023-09-07T00:50:52;9.70;;;8.60;;
51987;SDS011;38003;52.012;4.346;2023-09-07T00:53:21;9.77;;;8.60;;
51987;SDS011;38003;52.012;4.346;2023-09-07T00:55:51;10.05;;;9.02;;
51987;SDS011;38003;52.012;4.346;2023-09-07T00:58:19;8.93;;;7.95;;
51987;SDS011;38003;52.012;4.346;2023-09-07T01:00:48;9.57;;;8.68;;
51987;SDS011;38003;52.012;4.346;2023-09-07T01:03:17;9.38;;;8.35;;
51987;SDS011;38003;52.012;4.346;2023-09-07T01:05:47;11.23;;;8.48;;
51987;SDS011;38003;52.012;4.346;2023-09-07T01:08:23;8.98;;;8.15;;
51987;SDS011;38003;52.012;4.346;2023-09-07T01:10:52;9.35;;;8.50;;
51987;SDS011;38003;52.012;4.346;2023-09-07T01:13:20;9.52;;;8.63;;
51987;SDS011;38003;52.012;4.346;2023-09-07T01:15:49;9.88;;;8.98;;
51987;SDS011;38003;52.012;4.346;2023-09-07T01:18:18;9.85;;;8.85;;
51987;SDS011;38003;52.012;4.346;2023-09-07T01:20:50;9.77;;;8.88;;
51987;SDS011;38003;52.012;4.346;2023-09-07T01:23:20;10.38;;;9.07;;
51987;SDS011;38003;52.012;4.346;2023-09-07T01:25:48;9.75;;;8.75;;
51987;SDS011;38003;52.012;4.346;2023-09-07T01:28:17;10.20;;;9.10;;
51987;SDS011;38003;52.012;4.346;2023-09-07T01:30:47;10.63;;;9.57;;
51987;SDS011;38003;52.012;4.346;2023-09-07T01:33:16;9.73;;;8.77;;
51987;SDS011;38003;52.012;4.346;2023-09-07T01:35:44;9.73;;;8.82;;
51987;SDS011;38003;52.012;4.346;2023-09-07T01:38:13;9.85;;;9.05;;
51987;SDS011;38003;52.012;4.346;2023-09-07T01:40:42;9.38;;;8.48;;
51987;SDS011;38003;52.012;4.346;2023-09-07T01:43:11;9.93;;;8.93;;
51987;SDS011;38003;52.012;4.346;2023-09-07T01:45:39;10.02;;;9.02;;
51987;SDS011;38003;52.012;4.346;2023-09-07T01:48:08;10.05;;;9.05;;
51987;SDS011;38003;52.012;4.346;2023-09-07T01:50:36;9.57;;;8.63;;
51987;SDS011;38003;52.012;4.346;2023-09-07T01:53:05;9.55;;;8.52;;
51987;SDS011;38003;52.012;4.346;2023-09-07T01:55:33;10.25;;;9.25;;
51987;SDS011;38003;52.012;4.346;2023-09-07T01:58:03;9.80;;;8.90;;
51987;SDS011;38003;52.012;4.346;2023-09-07T02:00:35;11.27;;;9.02;;
51987;SDS011;38003;52.012;4.346;2023-09-07T02:03:04;10.25;;;9.23;;
51987;SDS011;38003;52.012;4.346;2023-09-07T02:05:32;10.35;;;8.93;;
51987;SDS011;38003;52.012;4.346;2023-09-07T02:08:01;9.55;;;8.65;;
51987;SDS011;38003;52.012;4.346;2023-09-07T02:10:30;10.45;;;9.20;;
51987;SDS011;38003;52.012;4.346;2023-09-07T02:12:58;10.02;;;8.52;;
51987;SDS011;38003;52.012;4.346;2023-09-07T02:15:28;10.15;;;9.13;;
51987;SDS011;38003;52.012;4.346;2023-09-07T02:17:56;10.18;;;9.13;;
51987;SDS011;38003;52.012;4.346;2023-09-07T02:20:25;10.45;;;9.45;;
51987;SDS011;38003;52.012;4.346;2023-09-07T02:22:53;10.15;;;9.20;;
51987;SDS011;38003;52.012;4.346;2023-09-07T02:25:21;10.73;;;9.52;;
51987;SDS011;38003;52.012;4.346;2023-09-07T02:27:50;9.63;;;8.60;;
51987;SDS011;38003;52.012;4.346;2023-09-07T02:30:18;9.95;;;8.95;;
51987;SDS011;38003;52.012;4.346;2023-09-07T02:32:48;11.07;;;10.02;;
51987;SDS011;38003;52.012;4.346;2023-09-07T02:35:16;10.35;;;9.35;;
51987;SDS011;38003;52.012;4.346;2023-09-07T02:37:45;10.40;;;9.30;;
51987;SDS011;38003;52.012;4.346;2023-09-07T02:40:13;10.73;;;9.73;;
51987;SDS011;38003;52.012;4.346;2023-09-07T02:42:42;11.27;;;10.18;;
51987;SDS011;38003;52.012;4.346;2023-09-07T02:45:10;10.48;;;9.48;;
51987;SDS011;38003;52.012;4.346;2023-09-07T02:47:39;10.40;;;9.35;;
51987;SDS011;38003;52.012;4.346;2023-09-07T02:50:09;11.20;;;9.88;;
51987;SDS011;38003;52.012;4.346;2023-09-07T02:52:37;11.40;;;10.25;;
51987;SDS011;38003;52.012;4.346;2023-09-07T02:55:05;11.38;;;10.27;;
51987;SDS011;38003;52.012;4.346;2023-09-07T02:57:34;12.00;;;10.80;;
51987;SDS011;38003;52.012;4.346;2023-09-07T03:00:03;11.68;;;10.25;;
51987;SDS011;38003;52.012;4.346;2023-09-07T03:02:36;11.38;;;10.13;;
51987;SDS011;38003;52.012;4.346;2023-09-07T03:05:05;10.93;;;9.82;;
51987;SDS011;38003;52.012;4.346;2023-09-07T03:07:35;11.55;;;10.43;;
51987;SDS011;38003;52.012;4.346;2023-09-07T03:10:05;11.00;;;10.00;;
51987;SDS011;38003;52.012;4.346;2023-09-07T03:12:34;11.15;;;9.95;;
51987;SDS011;38003;52.012;4.346;2023-09-07T03:15:02;13.63;;;10.38;;
51987;SDS011;38003;52.012;4.346;2023-09-07T03:17:30;11.85;;;10.65;;
51987;SDS011;38003;52.012;4.346;2023-09-07T03:20:00;11.52;;;10.43;;
51987;SDS011;38003;52.012;4.346;2023-09-07T03:22:32;10.95;;;10.00;;
51987;SDS011;38003;52.012;4.346;2023-09-07T03:25:01;12.27;;;10.95;;
51987;SDS011;38003;52.012;4.346;2023-09-07T03:27:30;11.88;;;10.82;;
51987;SDS011;38003;52.012;4.346;2023-09-07T03:29:59;13.13;;;11.82;;
51987;SDS011;38003;52.012;4.346;2023-09-07T03:32:27;12.00;;;10.90;;
51987;SDS011;38003;52.012;4.346;2023-09-07T03:34:59;12.93;;;11.73;;
51987;SDS011;38003;52.012;4.346;2023-09-07T03:37:27;12.45;;;11.13;;
51987;SDS011;38003;52.012;4.346;2023-09-07T03:39:56;13.13;;;11.80;;
51987;SDS011;38003;52.012;4.346;2023-09-07T03:42:25;13.52;;;12.13;;
51987;SDS011;38003;52.012;4.346;2023-09-07T03:44:55;12.27;;;11.07;;
51987;SDS011;38003;52.012;4.346;2023-09-07T03:47:24;12.23;;;11.02;;
51987;SDS011;38003;52.012;4.346;2023-09-07T03:49:55;12.38;;;11.25;;
51987;SDS011;38003;52.012;4.346;2023-09-07T03:52:23;13.30;;;11.50;;
51987;SDS011;38003;52.012;4.346;2023-09-07T03:54:53;13.57;;;12.07;;
51987;SDS011;38003;52.012;4.346;2023-09-07T03:57:22;12.63;;;11.35;;
51987;SDS011;38003;52.012;4.346;2023-09-07T03:59:51;12.82;;;11.18;;
51987;SDS011;38003;52.012;4.346;2023-09-07T04:02:21;12.80;;;11.55;;
51987;SDS011;38003;52.012;4.346;2023-09-07T04:04:50;12.90;;;11.70;;
51987;SDS011;38003;52.012;4.346;2023-09-07T04:07:19;12.60;;;11.30;;
51987;SDS011;38003;52.012;4.346;2023-09-07T04:09:47;13.30;;;11.77;;
51987;SDS011;38003;52.012;4.346;2023-09-07T04:12:15;13.38;;;12.18;;
51987;SDS011;38003;52.012;4.346;2023-09-07T04:14:43;12.98;;;11.80;;
51987;SDS011;38003;52.012;4.346;2023-09-07T04:17:13;13.65;;;12.30;;
51987;SDS011;38003;52.012;4.346;2023-09-07T04:19:41;13.45;;;12.05;;
51987;SDS011;38003;52.012;4.346;2023-09-07T04:22:10;13.57;;;12.23;;
51987;SDS011;38003;52.012;4.346;2023-09-07T04:24:38;13.50;;;12.20;;
51987;SDS011;38003;52.012;4.346;2023-09-07T04:27:06;13.85;;;12.55;;
51987;SDS011;38003;52.012;4.346;2023-09-07T04:29:35;13.68;;;12.35;;
51987;SDS011;38003;52.012;4.346;2023-09-07T04:32:03;14.30;;;12.90;;
51987;SDS011;38003;52.012;4.346;2023-09-07T04:34:33;14.45;;;13.07;;
51987;SDS011;38003;52.012;4.346;2023-09-07T04:37:01;15.90;;;13.13;;
51987;SDS011;38003;52.012;4.346;2023-09-07T04:39:29;13.95;;;12.50;;
51987;SDS011;38003;52.012;4.346;2023-09-07T04:41:58;14.27;;;12.88;;
51987;SDS011;38003;52.012;4.346;2023-09-07T04:44:26;16.98;;;13.90;;
51987;SDS011;38003;52.012;4.346;2023-09-07T04:46:54;15.98;;;13.68;;
51987;SDS011;38003;52.012;4.346;2023-09-07T04:49:23;15.25;;;13.73;;
51987;SDS011;38003;52.012;4.346;2023-09-07T04:51:54;15.15;;;13.00;;
51987;SDS011;38003;52.012;4.346;2023-09-07T04:54:22;15.82;;;13.77;;
51987;SDS011;38003;52.012;4.346;2023-09-07T04:56:50;14.20;;;12.68;;
51987;SDS011;38003;52.012;4.346;2023-09-07T04:59:18;14.82;;;13.18;;
51987;SDS011;38003;52.012;4.346;2023-09-07T05:01:47;14.48;;;13.07;;
51987;SDS011;38003;52.012;4.346;2023-09-07T05:04:15;14.57;;;13.18;;
51987;SDS011;38003;52.012;4.346;2023-09-07T05:06:43;15.20;;;13.70;;
51987;SDS011;38003;52.012;4.346;2023-09-07T05:09:13;15.27;;;13.50;;
51987;SDS011;38003;52.012;4.346;2023-09-07T05:11:41;15.55;;;13.95;;
51987;SDS011;38003;52.012;4.346;2023-09-07T05:14:09;15.80;;;14.27;;
51987;SDS011;38003;52.012;4.346;2023-09-07T05:16:37;15.15;;;13.75;;
51987;SDS011;38003;52.012;4.346;2023-09-07T05:19:06;15.05;;;13.48;;
51987;SDS011;38003;52.012;4.346;2023-09-07T05:21:34;14.52;;;13.13;;
51987;SDS011;38003;52.012;4.346;2023-09-07T05:24:02;15.10;;;13.70;;
51987;SDS011;38003;52.012;4.346;2023-09-07T05:26:32;15.32;;;13.82;;
51987;SDS011;38003;52.012;4.346;2023-09-07T05:29:00;15.95;;;14.32;;
51987;SDS011;38003;52.012;4.346;2023-09-07T05:31:29;15.60;;;13.93;;
51987;SDS011;38003;52.012;4.346;2023-09-07T05:33:57;14.93;;;13.40;;
51987;SDS011;38003;52.012;4.346;2023-09-07T05:36:26;15.10;;;13.57;;
51987;SDS011;38003;52.012;4.346;2023-09-07T05:38:55;15.15;;;13.65;;
51987;SDS011;38003;52.012;4.346;2023-09-07T05:41:23;16.80;;;15.20;;
51987;SDS011;38003;52.012;4.346;2023-09-07T05:43:52;15.32;;;13.82;;
51987;SDS011;38003;52.012;4.346;2023-09-07T05:46:21;16.50;;;14.77;;
51987;SDS011;38003;52.012;4.346;2023-09-07T05:48:50;16.98;;;14.95;;
51987;SDS011;38003;52.012;4.346;2023-09-07T05:51:18;16.75;;;15.10;;
51987;SDS011;38003;52.012;4.346;2023-09-07T05:53:47;17.30;;;14.45;;
51987;SDS011;38003;52.012;4.346;2023-09-07T05:56:15;15.82;;;13.80;;
51987;SDS011;38003;52.012;4.346;2023-09-07T05:58:43;15.75;;;14.02;;
51987;SDS011;38003;52.012;4.346;2023-09-07T06:01:13;15.25;;;13.85;;
51987;SDS011;38003;52.012;4.346;2023-09-07T06:03:41;15.05;;;13.55;;
51987;SDS011;38003;52.012;4.346;2023-09-07T06:06:10;16.02;;;14.43;;
51987;SDS011;38003;52.012;4.346;2023-09-07T06:08:38;16.60;;;14.90;;
51987;SDS011;38003;52.012;4.346;2023-09-07T06:11:06;16.77;;;13.75;;
51987;SDS011;38003;52.012;4.346;2023-09-07T06:13:35;17.30;;;14.55;;
51987;SDS011;38003;52.012;4.346;2023-09-07T06:16:04;16.67;;;14.93;;
51987;SDS011;38003;52.012;4.346;2023-09-07T06:18:34;15.88;;;14.18;;
51987;SDS011;38003;52.012;4.346;2023-09-07T06:21:03;16.42;;;14.55;;
51987;SDS011;38003;52.012;4.346;2023-09-07T06:23:32;16.08;;;14.35;;
51987;SDS011;38003;52.012;4.346;2023-09-07T06:26:00;17.83;;;13.70;;
51987;SDS011;38003;52.012;4.346;2023-09-07T06:28:29;15.68;;;14.10;;
51987;SDS011;38003;52.012;4.346;2023-09-07T06:30:58;16.77;;;14.30;;
51987;SDS011;38003;52.012;4.346;2023-09-07T06:33:26;16.70;;;15.02;;
51987;SDS011;38003;52.012;4.346;2023-09-07T06:35:55;15.77;;;14.18;;
51987;SDS011;38003;52.012;4.346;2023-09-07T06:38:27;19.70;;;14.68;;
51987;SDS011;38003;52.012;4.346;2023-09-07T06:40:56;16.92;;;14.32;;
51987;SDS011;38003;52.012;4.346;2023-09-07T06:43:24;16.25;;;14.55;;
51987;SDS011;38003;52.012;4.346;2023-09-07T06:45:52;15.30;;;13.80;;
51987;SDS011;38003;52.012;4.346;2023-09-07T06:48:21;15.35;;;13.77;;
51987;SDS011;38003;52.012;4.346;2023-09-07T06:50:49;15.95;;;14.43;;
51987;SDS011;38003;52.012;4.346;2023-09-07T06:53:19;15.35;;;13.75;;
51987;SDS011;38003;52.012;4.346;2023-09-07T06:55:47;14.38;;;12.85;;
51987;SDS011;38003;52.012;4.346;2023-09-07T06:58:15;16.02;;;14.00;;
51987;SDS011;38003;52.012;4.346;2023-09-07T07:00:44;14.98;;;13.48;;
51987;SDS011;38003;52.012;4.346;2023-09-07T07:03:14;15.68;;;14.07;;
51987;SDS011;38003;52.012;4.346;2023-09-07T07:05:42;15.95;;;14.35;;
51987;SDS011;38003;52.012;4.346;2023-09-07T07:08:10;14.90;;;13.35;;
51987;SDS011;38003;52.012;4.346;2023-09-07T07:10:40;15.10;;;13.70;;
51987;SDS011;38003;52.012;4.346;2023-09-07T07:13:08;15.45;;;13.88;;
51987;SDS011;38003;52.012;4.346;2023-09-07T07:15:36;14.70;;;13.20;;
51987;SDS011;38003;52.012;4.346;2023-09-07T07:18:05;16.88;;;13.30;;
51987;SDS011;38003;52.012;4.346;2023-09-07T07:20:35;16.38;;;12.68;;
51987;SDS011;38003;52.012;4.346;2023-09-07T07:23:03;15.23;;;13.73;;
51987;SDS011;38003;52.012;4.346;2023-09-07T07:25:32;13.65;;;12.13;;
51987;SDS011;38003;52.012;4.346;2023-09-07T07:28:02;15.25;;;13.18;;
51987;SDS011;38003;52.012;4.346;2023-09-07T07:30:31;14.43;;;12.73;;
51987;SDS011;38003;52.012;4.346;2023-09-07T07:33:00;14.60;;;13.02;;
51987;SDS011;38003;52.012;4.346;2023-09-07T07:35:30;14.68;;;13.25;;
51987;SDS011;38003;52.012;4.346;2023-09-07T07:37:58;13.30;;;11.88;;
51987;SDS011;38003;52.012;4.346;2023-09-07T07:40:27;14.20;;;12.50;;
51987;SDS011;38003;52.012;4.346;2023-09-07T07:42:55;14.48;;;13.05;;
51987;SDS011;38003;52.012;4.346;2023-09-07T07:45:25;15.82;;;12.18;;
51987;SDS011;38003;52.012;4.346;2023-09-07T07:47:53;13.50;;;11.82;;
51987;SDS011;38003;52.012;4.346;2023-09-07T07:50:21;13.43;;;12.00;;
51987;SDS011;38003;52.012;4.346;2023-09-07T07:52:49;15.45;;;11.73;;
51987;SDS011;38003;52.012;4.346;2023-09-07T07:55:18;12.88;;;10.48;;
51987;SDS011;38003;52.012;4.346;2023-09-07T07:57:46;13.70;;;12.10;;
51987;SDS011;38003;52.012;4.346;2023-09-07T08:00:14;12.43;;;11.20;;
51987;SDS011;38003;52.012;4.346;2023-09-07T08:02:44;12.23;;;10.93;;
51987;SDS011;38003;52.012;4.346;2023-09-07T08:05:12;13.50;;;9.95;;
51987;SDS011;38003;52.012;4.346;2023-09-07T08:07:41;11.02;;;9.93;;
51987;SDS011;38003;52.012;4.346;2023-09-07T08:10:09;12.77;;;10.20;;
51987;SDS011;38003;52.012;4.346;2023-09-07T08:12:37;11.18;;;9.57;;
51987;SDS011;38003;52.012;4.346;2023-09-07T08:15:06;10.20;;;9.07;;
51987;SDS011;38003;52.012;4.346;2023-09-07T08:17:34;10.05;;;9.02;;
51987;SDS011;38003;52.012;4.346;2023-09-07T08:20:04;11.60;;;9.35;;
51987;SDS011;38003;52.012;4.346;2023-09-07T08:22:37;14.00;;;9.77;;
51987;SDS011;38003;52.012;4.346;2023-09-07T08:25:08;10.70;;;9.40;;
51987;SDS011;38003;52.012;4.346;2023-09-07T08:27:36;12.27;;;9.10;;
51987;SDS011;38003;52.012;4.346;2023-09-07T08:30:05;11.20;;;9.50;;
51987;SDS011;38003;52.012;4.346;2023-09-07T08:32:33;13.32;;;9.43;;
51987;SDS011;38003;52.012;4.346;2023-09-07T08:35:02;9.55;;;8.55;;
51987;SDS011;38003;52.012;4.346;2023-09-07T08:37:34;11.65;;;9.05;;
51987;SDS011;38003;52.012;4.346;2023-09-07T08:40:02;10.52;;;8.50;;
51987;SDS011;38003;52.012;4.346;2023-09-07T08:42:34;9.48;;;8.48;;
51987;SDS011;38003;52.012;4.346;2023-09-07T08:45:04;10.00;;;8.23;;
51987;SDS011;38003;52.012;4.346;2023-09-07T08:47:34;10.30;;;7.45;;
51987;SDS011;38003;52.012;4.346;2023-09-07T08:50:02;10.35;;;8.52;;
51987;SDS011;38003;52.012;4.346;2023-09-07T08:52:34;8.02;;;7.22;;
51987;SDS011;38003;52.012;4.346;2023-09-07T08:55:03;8.88;;;7.70;;
51987;SDS011;38003;52.012;4.346;2023-09-07T08:57:32;9.07;;;8.18;;
51987;SDS011;38003;52.012;4.346;2023-09-07T09:00:00;7.72;;;6.95;;
51987;SDS011;38003;52.012;4.346;2023-09-07T09:02:34;7.88;;;7.07;;
51987;SDS011;38003;52.012;4.346;2023-09-07T09:05:04;8.60;;;6.95;;
51987;SDS011;38003;52.012;4.346;2023-09-07T09:07:34;10.73;;;6.95;;
51987;SDS011;38003;52.012;4.346;2023-09-07T09:10:03;9.60;;;6.63;;
51987;SDS011;38003;52.012;4.346;2023-09-07T09:12:31;7.68;;;6.93;;
51987;SDS011;38003;52.012;4.346;2023-09-07T09:15:00;7.15;;;6.45;;
51987;SDS011;38003;52.012;4.346;2023-09-07T09:17:29;6.82;;;6.07;;
51987;SDS011;38003;52.012;4.346;2023-09-07T09:19:57;8.90;;;6.72;;
51987;SDS011;38003;52.012;4.346;2023-09-07T09:22:26;8.77;;;6.70;;
51987;SDS011;38003;52.012;4.346;2023-09-07T09:24:55;9.80;;;6.47;;
51987;SDS011;38003;52.012;4.346;2023-09-07T09:27:23;7.45;;;6.60;;
51987;SDS011;38003;52.012;4.346;2023-09-07T09:29:52;9.63;;;6.93;;
51987;SDS011;38003;52.012;4.346;2023-09-07T09:32:20;8.57;;;6.32;;
51987;SDS011;38003;52.012;4.346;2023-09-07T09:34:48;10.25;;;6.35;;
51987;SDS011;38003;52.012;4.346;2023-09-07T09:37:16;10.20;;;7.15;;
51987;SDS011;38003;52.012;4.346;2023-09-07T09:39:47;7.25;;;6.07;;
51987;SDS011;38003;52.012;4.346;2023-09-07T09:42:17;9.68;;;6.85;;
51987;SDS011;38003;52.012;4.346;2023-09-07T09:44:46;12.95;;;6.55;;
51987;SDS011;38003;52.012;4.346;2023-09-07T09:47:17;7.90;;;6.00;;
51987;SDS011;38003;52.012;4.346;2023-09-07T09:49:46;7.60;;;6.55;;
51987;SDS011;38003;52.012;4.346;2023-09-07T09:52:15;10.50;;;6.70;;
51987;SDS011;38003;52.012;4.346;2023-09-07T09:54:43;8.57;;;6.70;;
51987;SDS011;38003;52.012;4.346;2023-09-07T09:57:12;7.45;;;5.60;;
51987;SDS011;38003;52.012;4.346;2023-09-07T09:59:43;8.10;;;6.13;;
51987;SDS011;38003;52.012;4.346;2023-09-07T10:02:11;10.85;;;6.38;;
51987;SDS011;38003;52.012;4.346;2023-09-07T10:04:39;7.18;;;6.45;;
51987;SDS011;38003;52.012;4.346;2023-09-07T10:07:08;8.85;;;5.85;;
51987;SDS011;38003;52.012;4.346;2023-09-07T10:09:37;9.27;;;7.05;;
51987;SDS011;38003;52.012;4.346;2023-09-07T10:12:10;7.20;;;5.70;;
51987;SDS011;38003;52.012;4.346;2023-09-07T10:14:44;9.27;;;5.90;;
51987;SDS011;38003;52.012;4.346;2023-09-07T10:17:21;6.97;;;5.32;;
51987;SDS011;38003;52.012;4.346;2023-09-07T10:19:50;5.85;;;5.25;;
51987;SDS011;38003;52.012;4.346;2023-09-07T10:22:20;8.90;;;5.68;;
51987;SDS011;38003;52.012;4.346;2023-09-07T10:24:56;8.02;;;5.00;;
51987;SDS011;38003;52.012;4.346;2023-09-07T10:27:25;6.65;;;5.28;;
51987;SDS011;38003;52.012;4.346;2023-09-07T10:29:54;6.90;;;4.90;;
51987;SDS011;38003;52.012;4.346;2023-09-07T10:32:22;9.13;;;5.22;;
51987;SDS011;38003;52.012;4.346;2023-09-07T10:34:51;10.63;;;5.03;;
51987;SDS011;38003;52.012;4.346;2023-09-07T10:37:19;6.63;;;5.00;;
51987;SDS011;38003;52.012;4.346;2023-09-07T10:39:50;7.03;;;4.93;;
51987;SDS011;38003;52.012;4.346;2023-09-07T10:42:19;5.70;;;4.50;;
51987;SDS011;38003;52.012;4.346;2023-09-07T10:44:48;9.75;;;4.43;;
51987;SDS011;38003;52.012;4.346;2023-09-07T10:47:18;4.65;;;4.20;;
51987;SDS011;38003;52.012;4.346;2023-09-07T10:49:46;6.97;;;4.60;;
51987;SDS011;38003;52.012;4.346;2023-09-07T10:52:15;8.45;;;3.97;;
51987;SDS011;38003;52.012;4.346;2023-09-07T10:54:43;5.57;;;4.15;;
51987;SDS011;38003;52.012;4.346;2023-09-07T10:57:11;6.00;;;4.50;;
51987;SDS011;38003;52.012;4.346;2023-09-07T10:59:44;7.25;;;4.07;;
51987;SDS011;38003;52.012;4.346;2023-09-07T11:02:13;6.80;;;4.32;;
51987;SDS011;38003;52.012;4.346;2023-09-07T11:04:44;6.45;;;4.15;;
51987;SDS011;38003;52.012;4.346;2023-09-07T11:07:12;5.43;;;4.38;;
51987;SDS011;38003;52.012;4.346;2023-09-07T11:09:41;5.55;;;4.22;;
51987;SDS011;38003;52.012;4.346;2023-09-07T11:12:11;4.93;;;4.13;;
51987;SDS011;38003;52.012;4.346;2023-09-07T11:14:40;4.30;;;3.88;;
51987;SDS011;38003;52.012;4.346;2023-09-07T11:17:08;6.10;;;4.25;;
51987;SDS011;38003;52.012;4.346;2023-09-07T11:19:38;5.93;;;4.22;;
51987;SDS011;38003;52.012;4.346;2023-09-07T11:22:08;6.38;;;3.97;;
51987;SDS011;38003;52.012;4.346;2023-09-07T11:24:37;5.18;;;3.67;;
51987;SDS011;38003;52.012;4.346;2023-09-07T11:27:05;4.88;;;3.45;;
51987;SDS011;38003;52.012;4.346;2023-09-07T11:29:33;4.40;;;3.60;;
51987;SDS011;38003;52.012;4.346;2023-09-07T11:32:08;4.47;;;3.50;;
51987;SDS011;38003;52.012;4.346;2023-09-07T11:34:46;7.18;;;3.90;;
51987;SDS011;38003;52.012;4.346;2023-09-07T11:37:17;4.47;;;3.60;;
51987;SDS011;38003;52.012;4.346;2023-09-07T11:39:45;4.03;;;3.40;;
51987;SDS011;38003;52.012;4.346;2023-09-07T11:42:14;4.03;;;3.25;;
51987;SDS011;38003;52.012;4.346;2023-09-07T11:44:42;4.00;;;3.60;;
51987;SDS011;38003;52.012;4.346;2023-09-07T11:47:10;3.97;;;3.55;;
51987;SDS011;38003;52.012;4.346;2023-09-07T11:49:38;5.30;;;3.33;;
51987;SDS011;38003;52.012;4.346;2023-09-07T11:52:07;5.07;;;3.65;;
51987;SDS011;38003;52.012;4.346;2023-09-07T11:54:36;3.95;;;3.20;;
51987;SDS011;38003;52.012;4.346;2023-09-07T11:57:05;6.47;;;3.55;;
51987;SDS011;38003;52.012;4.346;2023-09-07T11:59:33;4.18;;;3.30;;
51987;SDS011;38003;52.012;4.346;2023-09-07T12:02:21;5.75;;;4.20;;
51987;SDS011;38003;52.012;4.346;2023-09-07T12:04:50;6.80;;;3.60;;
51987;SDS011;38003;52.012;4.346;2023-09-07T12:07:18;5.22;;;3.10;;
51987;SDS011;38003;52.012;4.346;2023-09-07T12:09:48;4.85;;;3.15;;
51987;SDS011;38003;52.012;4.346;2023-09-07T12:12:16;4.95;;;3.40;;
51987;SDS011;38003;52.012;4.346;2023-09-07T12:14:45;3.38;;;3.08;;
51987;SDS011;38003;52.012;4.346;2023-09-07T12:17:13;6.13;;;3.33;;
51987;SDS011;38003;52.012;4.346;2023-09-07T12:19:41;5.63;;;3.38;;
51987;SDS011;38003;52.012;4.346;2023-09-07T12:22:12;5.13;;;3.30;;
51987;SDS011;38003;52.012;4.346;2023-09-07T12:24:40;9.05;;;3.53;;
51987;SDS011;38003;52.012;4.346;2023-09-07T12:27:10;5.43;;;3.25;;
51987;SDS011;38003;52.012;4.346;2023-09-07T12:29:38;6.53;;;3.00;;
51987;SDS011;38003;52.012;4.346;2023-09-07T12:32:06;5.57;;;3.20;;
51987;SDS011;38003;52.012;4.346;2023-09-07T12:34:34;6.80;;;3.28;;
51987;SDS011;38003;52.012;4.346;2023-09-07T12:37:03;3.65;;;3.20;;
51987;SDS011;38003;52.012;4.346;2023-09-07T12:39:31;4.50;;;3.13;;
51987;SDS011;38003;52.012;4.346;2023-09-07T12:41:59;5.88;;;3.00;;
51987;SDS011;38003;52.012;4.346;2023-09-07T12:44:29;4.43;;;3.03;;
51987;SDS011;38003;52.012;4.346;2023-09-07T12:46:58;6.10;;;3.22;;
51987;SDS011;38003;52.012;4.346;2023-09-07T12:49:26;6.00;;;2.90;;
51987;SDS011;38003;52.012;4.346;2023-09-07T12:51:55;6.75;;;2.80;;
51987;SDS011;38003;52.012;4.346;2023-09-07T12:54:23;6.38;;;3.53;;
51987;SDS011;38003;52.012;4.346;2023-09-07T12:56:51;6.40;;;3.20;;
51987;SDS011;38003;52.012;4.346;2023-09-07T12:59:19;5.22;;;3.05;;
51987;SDS011;38003;52.012;4.346;2023-09-07T13:01:50;5.22;;;3.30;;
51987;SDS011;38003;52.012;4.346;2023-09-07T13:04:21;3.58;;;3.00;;
51987;SDS011;38003;52.012;4.346;2023-09-07T13:06:50;5.80;;;2.88;;
51987;SDS011;38003;52.012;4.346;2023-09-07T13:09:18;3.97;;;3.58;;
51987;SDS011;38003;52.012;4.346;2023-09-07T13:11:46;6.22;;;3.17;;
51987;SDS011;38003;52.012;4.346;2023-09-07T13:14:15;3.83;;;2.80;;
51987;SDS011;38003;52.012;4.346;2023-09-07T13:16:43;5.20;;;3.03;;
51987;SDS011;38003;52.012;4.346;2023-09-07T13:19:13;4.90;;;3.30;;
51987;SDS011;38003;52.012;4.346;2023-09-07T13:21:41;4.30;;;3.22;;
51987;SDS011;38003;52.012;4.346;2023-09-07T13:24:09;4.35;;;2.85;;
51987;SDS011;38003;52.012;4.346;2023-09-07T13:26:37;3.90;;;3.13;;
51987;SDS011;38003;52.012;4.346;2023-09-07T13:29:05;4.15;;;3.05;;
51987;SDS011;38003;52.012;4.346;2023-09-07T13:31:34;3.53;;;2.97;;
51987;SDS011;38003;52.012;4.346;2023-09-07T13:34:03;5.82;;;2.90;;
51987;SDS011;38003;52.012;4.346;2023-09-07T13:36:32;4.70;;;3.10;;
51987;SDS011;38003;52.012;4.346;2023-09-07T13:39:00;5.00;;;3.08;;
51987;SDS011;38003;52.012;4.346;2023-09-07T13:41:29;5.10;;;3.05;;
51987;SDS011;38003;52.012;4.346;2023-09-07T13:43:57;3.90;;;2.90;;
51987;SDS011;38003;52.012;4.346;2023-09-07T13:46:26;4.68;;;3.20;;
51987;SDS011;38003;52.012;4.346;2023-09-07T13:48:55;3.67;;;3.20;;
51987;SDS011;38003;52.012;4.346;2023-09-07T13:51:24;4.25;;;2.90;;
51987;SDS011;38003;52.012;4.346;2023-09-07T13:53:56;6.57;;;3.13;;
51987;SDS011;38003;52.012;4.346;2023-09-07T13:56:24;5.18;;;3.17;;
51987;SDS011;38003;52.012;4.346;2023-09-07T13:58:53;3.88;;;3.22;;
51987;SDS011;38003;52.012;4.346;2023-09-07T14:01:21;5.20;;;3.38;;
51987;SDS011;38003;52.012;4.346;2023-09-07T14:03:50;4.90;;;3.40;;
51987;SDS011;38003;52.012;4.346;2023-09-07T14:06:18;4.97;;;2.95;;
51987;SDS011;38003;52.012;4.346;2023-09-07T14:08:49;3.83;;;3.03;;
51987;SDS011;38003;52.012;4.346;2023-09-07T14:11:20;3.55;;;3.13;;
51987;SDS011;38003;52.012;4.346;2023-09-07T14:13:49;8.80;;;3.40;;
51987;SDS011;38003;52.012;4.346;2023-09-07T14:16:18;3.53;;;2.90;;
51987;SDS011;38003;52.012;4.346;2023-09-07T14:18:47;5.53;;;3.00;;
51987;SDS011;38003;52.012;4.346;2023-09-07T14:21:16;3.53;;;3.10;;
51987;SDS011;38003;52.012;4.346;2023-09-07T14:23:44;6.57;;;3.40;;
51987;SDS011;38003;52.012;4.346;2023-09-07T14:26:13;4.35;;;2.75;;
51987;SDS011;38003;52.012;4.346;2023-09-07T14:28:42;5.38;;;3.10;;
51987;SDS011;38003;52.012;4.346;2023-09-07T14:31:11;8.43;;;2.85;;
51987;SDS011;38003;52.012;4.346;2023-09-07T14:33:40;6.85;;;3.10;;
51987;SDS011;38003;52.012;4.346;2023-09-07T14:36:09;6.57;;;2.80;;
51987;SDS011;38003;52.012;4.346;2023-09-07T14:38:37;4.00;;;2.92;;
51987;SDS011;38003;52.012;4.346;2023-09-07T14:41:07;5.35;;;3.15;;
51987;SDS011;38003;52.012;4.346;2023-09-07T14:43:37;5.20;;;2.90;;
51987;SDS011;38003;52.012;4.346;2023-09-07T14:46:07;4.40;;;3.17;;